createdAt,value
2023-02-12T00:00:11.279Z,28.90
2023-02-12T00:02:44.852Z,32.43
2023-02-12T00:05:12.647Z,30.93
2023-02-12T00:07:40.440Z,30.70
2023-02-12T00:10:09.633Z,29.93
2023-02-12T00:12:37.470Z,32.67
2023-02-12T00:15:05.710Z,34.00
2023-02-12T00:17:34.856Z,31.30
2023-02-12T00:20:02.661Z,33.00
2023-02-12T00:22:30.514Z,29.67
2023-02-12T00:24:58.428Z,29.47
2023-02-12T00:27:26.578Z,28.63
2023-02-12T00:29:54.376Z,27.30
2023-02-12T00:32:22.231Z,29.07
2023-02-12T00:34:51.434Z,30.30
2023-02-12T00:37:19.394Z,34.63
2023-02-12T00:39:47.227Z,33.73
2023-02-12T00:42:15.002Z,30.10
2023-02-12T00:44:42.772Z,30.30
2023-02-12T00:47:11.280Z,27.00
2023-02-12T00:49:39.137Z,32.60
2023-02-12T00:52:08.281Z,30.97
2023-02-12T00:54:36.101Z,33.50
2023-02-12T00:57:03.929Z,35.60
2023-02-12T00:59:31.928Z,35.37
2023-02-12T01:01:59.782Z,35.50
2023-02-12T01:04:27.686Z,36.50
2023-02-12T01:06:56.317Z,27.87
2023-02-12T01:09:25.481Z,26.10
2023-02-12T01:11:53.293Z,29.70
2023-02-12T01:14:21.650Z,27.53
2023-02-12T01:16:49.433Z,32.30
2023-02-12T01:19:17.302Z,29.03
2023-02-12T01:21:45.671Z,25.93
2023-02-12T01:24:13.573Z,30.00
2023-02-12T01:26:42.829Z,27.00
2023-02-12T01:29:11.700Z,28.07
2023-02-12T01:31:40.657Z,31.30
2023-02-12T01:34:13.714Z,30.10
2023-02-12T01:36:41.505Z,28.90
2023-02-12T01:39:09.611Z,26.40
2023-02-12T01:41:45.995Z,30.80
2023-02-12T01:44:18.130Z,29.23
2023-02-12T01:46:48.437Z,26.67
2023-02-12T01:49:20.002Z,27.37
2023-02-12T01:51:49.932Z,30.60
2023-02-12T01:54:19.660Z,29.93
2023-02-12T01:56:49.118Z,31.60
2023-02-12T01:59:17.947Z,27.03
2023-02-12T02:01:45.970Z,28.23
2023-02-12T02:04:17.072Z,29.90
2023-02-12T02:06:49.245Z,31.43
2023-02-12T02:09:17.711Z,35.93
2023-02-12T02:12:02.985Z,30.83
2023-02-12T02:14:34.802Z,29.73
2023-02-12T02:17:14.488Z,30.40
2023-02-12T02:19:56.883Z,33.63
2023-02-12T02:22:30.125Z,28.00
2023-02-12T02:25:28.374Z,25.50
2023-02-12T02:28:05.071Z,36.53
2023-02-12T02:30:36.669Z,32.70
2023-02-12T02:33:14.890Z,33.83
2023-02-12T02:35:48.510Z,35.20
2023-02-12T02:38:23.550Z,29.67
2023-02-12T02:40:56.829Z,33.77
2023-02-12T02:43:29.629Z,26.50
2023-02-12T02:46:01.133Z,29.23
2023-02-12T02:48:34.690Z,33.13
2023-02-12T02:51:05.324Z,32.27
2023-02-12T02:53:37.524Z,34.03
2023-02-12T02:56:07.952Z,35.83
2023-02-12T02:58:37.990Z,32.53
2023-02-12T03:01:09.357Z,33.40
2023-02-12T03:03:40.723Z,32.40
2023-02-12T03:06:12.240Z,30.67
2023-02-12T03:08:43.163Z,32.63
2023-02-12T03:11:14.473Z,33.80
2023-02-12T03:13:44.898Z,31.63
2023-02-12T03:16:18.790Z,31.87
2023-02-12T03:18:50.118Z,32.30
2023-02-12T03:21:19.989Z,32.73
2023-02-12T03:23:50.545Z,33.07
2023-02-12T03:26:22.652Z,33.27
2023-02-12T03:28:50.526Z,33.43
2023-02-12T03:31:26.223Z,33.67
2023-02-12T03:34:03.648Z,34.67
2023-02-12T03:36:37.026Z,32.70
2023-02-12T03:39:09.869Z,32.07
2023-02-12T03:41:42.829Z,30.47
2023-02-12T03:44:17.539Z,33.60
2023-02-12T03:46:53.547Z,31.50
2023-02-12T03:49:24.952Z,29.97
2023-02-12T03:51:53.876Z,33.97
2023-02-12T03:54:22.679Z,34.03
2023-02-12T03:56:53.154Z,38.53
2023-02-12T03:59:21.652Z,34.53
2023-02-12T04:01:53.396Z,38.77
2023-02-12T04:04:21.758Z,32.03
2023-02-12T04:06:50.875Z,31.23
2023-02-12T04:09:19.134Z,32.23
2023-02-12T04:11:57.676Z,36.13
2023-02-12T04:14:30.634Z,34.17
2023-02-12T04:17:05.294Z,32.23
2023-02-12T04:19:37.187Z,37.33
2023-02-12T04:22:16.212Z,40.50
2023-02-12T04:24:50.802Z,35.77
2023-02-12T04:27:23.066Z,33.50
2023-02-12T04:29:53.847Z,36.57
2023-02-12T04:32:26.803Z,41.50
2023-02-12T04:35:00.183Z,40.13
2023-02-12T04:37:30.941Z,41.53
2023-02-12T04:39:59.781Z,40.13
2023-02-12T04:42:27.611Z,34.70
2023-02-12T04:44:55.379Z,38.20
2023-02-12T04:47:24.542Z,36.30
2023-02-12T04:49:52.330Z,40.30
2023-02-12T04:52:20.106Z,37.67
2023-02-12T04:54:47.946Z,40.00
2023-02-12T04:57:15.774Z,37.33
2023-02-12T04:59:43.553Z,35.10
2023-02-12T05:02:11.333Z,38.60
2023-02-12T05:04:40.494Z,40.37
2023-02-12T05:07:08.330Z,36.03
2023-02-12T05:09:39.077Z,38.40
2023-02-12T05:12:07.215Z,37.50
2023-02-12T05:14:35.035Z,40.80
2023-02-12T05:17:02.822Z,35.73
2023-02-12T05:19:30.630Z,37.20
2023-02-12T05:21:59.815Z,37.73
2023-02-12T05:24:28.109Z,37.20
2023-02-12T05:26:55.917Z,43.30
2023-02-12T05:29:23.723Z,38.70
2023-02-12T05:31:51.584Z,39.90
2023-02-12T05:34:20.266Z,42.60
2023-02-12T05:36:48.170Z,40.40
2023-02-12T05:39:17.391Z,38.30
2023-02-12T05:41:45.196Z,42.07
2023-02-12T05:44:15.040Z,33.60
2023-02-12T05:46:43.216Z,48.80
2023-02-12T05:49:11.321Z,43.00
2023-02-12T05:51:39.197Z,40.70
2023-02-12T05:54:08.226Z,51.07
2023-02-12T05:56:39.270Z,53.17
2023-02-12T05:59:08.775Z,54.70
2023-02-12T06:01:38.967Z,52.67
2023-02-12T06:04:09.638Z,52.00
2023-02-12T06:06:37.671Z,57.07
2023-02-12T06:09:05.462Z,61.53
2023-02-12T06:11:38.083Z,49.13
2023-02-12T06:14:07.155Z,51.33
2023-02-12T06:16:35.467Z,55.33
2023-02-12T06:19:05.118Z,60.23
2023-02-12T06:21:33.981Z,53.23
2023-02-12T06:24:01.902Z,54.37
2023-02-12T06:26:30.030Z,50.80
2023-02-12T06:28:59.178Z,59.60
2023-02-12T06:31:29.133Z,56.43
2023-02-12T06:34:00.382Z,57.73
2023-02-12T06:36:28.404Z,57.83
2023-02-12T06:38:56.632Z,52.53
2023-02-12T06:41:24.775Z,54.80
2023-02-12T06:43:52.629Z,59.50
2023-02-12T06:46:21.944Z,57.87
2023-02-12T06:48:49.791Z,58.23
2023-02-12T06:51:21.813Z,61.47
2023-02-12T06:53:49.630Z,58.70
2023-02-12T06:56:18.017Z,59.67
2023-02-12T06:58:47.599Z,61.73
2023-02-12T07:01:18.641Z,60.03
2023-02-12T07:03:49.773Z,62.90
2023-02-12T07:06:18.015Z,64.70
2023-02-12T07:08:46.085Z,58.27
2023-02-12T07:11:14.020Z,60.10
2023-02-12T07:13:42.108Z,65.50
2023-02-12T07:16:11.689Z,56.60
2023-02-12T07:18:39.914Z,65.30
2023-02-12T07:21:09.921Z,61.60
2023-02-12T07:23:37.750Z,63.87
2023-02-12T07:26:10.302Z,52.57
2023-02-12T07:28:38.199Z,66.20
2023-02-12T07:31:10.959Z,60.83
2023-02-12T07:33:39.260Z,67.90
2023-02-12T07:36:10.144Z,67.13
2023-02-12T07:38:39.821Z,69.20
2023-02-12T07:41:10.857Z,74.83
2023-02-12T07:43:39.438Z,79.37
2023-02-12T07:46:09.407Z,73.43
2023-02-12T07:48:37.236Z,63.77
2023-02-12T07:51:07.529Z,78.47
2023-02-12T07:53:37.297Z,68.17
2023-02-12T07:56:09.922Z,65.03
2023-02-12T07:58:38.255Z,67.00
2023-02-12T08:01:14.741Z,67.83
2023-02-12T08:03:42.567Z,68.27
2023-02-12T08:06:11.431Z,74.27
2023-02-12T08:08:40.903Z,66.87
2023-02-12T08:11:09.571Z,71.47
2023-02-12T08:13:38.252Z,73.20
2023-02-12T08:16:07.869Z,69.27
2023-02-12T08:18:36.568Z,69.50
2023-02-12T08:21:05.657Z,68.70
2023-02-12T08:23:33.629Z,70.20
2023-02-12T08:26:13.258Z,70.93
2023-02-12T08:28:43.306Z,66.90
2023-02-12T08:31:15.741Z,72.90
2023-02-12T08:33:43.548Z,67.87
2023-02-12T08:36:12.718Z,65.93
2023-02-12T08:38:40.625Z,62.63
2023-02-12T08:41:11.372Z,64.00
2023-02-12T08:43:41.575Z,61.40
2023-02-12T08:46:11.845Z,68.63
2023-02-12T08:48:40.201Z,60.37
2023-02-12T08:51:13.051Z,61.03
2023-02-12T08:53:42.096Z,67.37
2023-02-12T08:56:10.678Z,64.37
2023-02-12T08:58:40.202Z,67.10
2023-02-12T09:01:11.251Z,63.77
2023-02-12T09:03:39.205Z,64.93
2023-02-12T09:06:08.956Z,66.03
2023-02-12T09:08:37.950Z,65.57
2023-02-12T09:11:07.212Z,61.43
2023-02-12T09:13:35.505Z,60.93
2023-02-12T09:16:05.758Z,61.53
2023-02-12T09:18:34.225Z,59.03
2023-02-12T09:21:02.881Z,60.57
2023-02-12T09:23:30.770Z,54.40
2023-02-12T09:25:58.864Z,56.20
2023-02-12T09:28:26.923Z,53.07
2023-02-12T09:30:54.817Z,52.90
2023-02-12T09:33:24.412Z,52.70
2023-02-12T09:35:52.321Z,52.77
2023-02-12T09:38:20.638Z,49.90
2023-02-12T09:40:53.707Z,55.97
2023-02-12T09:43:26.489Z,49.27
2023-02-12T09:45:59.670Z,50.47
2023-02-12T09:48:46.845Z,54.43
2023-02-12T09:51:15.150Z,52.70
2023-02-12T09:53:45.862Z,58.00
2023-02-12T09:56:16.248Z,56.27
2023-02-12T09:58:47.644Z,49.77
2023-02-12T10:01:17.431Z,49.43
2023-02-12T10:03:49.574Z,50.80
2023-02-12T10:06:19.000Z,51.50
2023-02-12T10:09:00.625Z,52.00
2023-02-12T10:11:43.522Z,52.73
2023-02-12T10:14:25.699Z,51.90
2023-02-12T10:16:58.065Z,49.87
2023-02-12T10:19:39.175Z,51.43
2023-02-12T10:22:14.082Z,46.53
2023-02-12T10:24:50.221Z,48.53
2023-02-12T10:27:19.299Z,50.97
2023-02-12T10:29:48.258Z,48.00
2023-02-12T10:32:24.091Z,48.60
2023-02-12T10:34:54.213Z,50.60
2023-02-12T10:37:28.102Z,54.80
2023-02-12T10:39:59.309Z,49.13
2023-02-12T10:42:38.239Z,51.47
2023-02-12T10:45:06.878Z,49.47
2023-02-12T10:47:34.698Z,43.00
2023-02-12T10:50:04.337Z,49.33
2023-02-12T10:52:37.856Z,51.33
2023-02-12T10:55:25.051Z,54.53
2023-02-12T10:57:53.093Z,47.07
2023-02-12T11:00:26.715Z,46.57
2023-02-12T11:03:06.227Z,57.50
2023-02-12T11:05:36.912Z,51.83
2023-02-12T11:08:05.585Z,48.70
2023-02-12T11:10:34.829Z,53.23
2023-02-12T11:13:03.145Z,51.07
2023-02-12T11:15:36.270Z,51.20
2023-02-12T11:18:07.521Z,47.27
2023-02-12T11:20:39.569Z,44.20
2023-02-12T11:23:10.930Z,49.60
2023-02-12T11:25:39.240Z,48.80
2023-02-12T11:28:15.625Z,46.43
2023-02-12T11:30:51.267Z,41.10
2023-02-12T11:33:31.279Z,49.57
2023-02-12T11:36:07.509Z,47.13
2023-02-12T11:38:37.446Z,46.53
2023-02-12T11:41:10.237Z,46.53
2023-02-12T11:43:39.574Z,47.60
2023-02-12T11:46:09.333Z,48.60
2023-02-12T11:48:39.221Z,45.47
2023-02-12T11:51:10.249Z,40.73
2023-02-12T11:53:40.900Z,38.57
2023-02-12T11:56:10.456Z,39.53
2023-02-12T11:58:38.889Z,40.00
2023-02-12T12:01:12.693Z,38.23
2023-02-12T12:03:47.035Z,38.67
2023-02-12T12:06:39.321Z,37.83
2023-02-12T12:09:15.765Z,37.00
2023-02-12T12:11:49.036Z,35.10
2023-02-12T12:14:21.679Z,34.47
2023-02-12T12:17:12.957Z,39.40
2023-02-12T12:19:54.370Z,32.93
2023-02-12T12:22:40.754Z,29.70
2023-02-12T12:25:16.918Z,30.13
2023-02-12T12:28:03.966Z,28.33
2023-02-12T12:30:40.093Z,29.23
2023-02-12T12:33:13.506Z,27.30
2023-02-12T12:35:46.894Z,22.50
2023-02-12T12:38:24.812Z,29.20
2023-02-12T12:41:04.042Z,32.80
2023-02-12T12:43:39.958Z,28.80
2023-02-12T12:46:35.216Z,25.67
2023-02-12T12:49:22.930Z,24.03
2023-02-12T12:52:11.983Z,25.50
2023-02-12T12:55:04.225Z,23.33
2023-02-12T12:57:40.824Z,24.50
2023-02-12T13:00:19.735Z,24.00
2023-02-12T13:03:17.487Z,23.17
2023-02-12T13:06:26.917Z,21.70
2023-02-12T13:09:17.168Z,26.63
2023-02-12T13:11:55.001Z,29.80
2023-02-12T13:14:32.638Z,25.13
2023-02-12T13:17:09.103Z,24.70
2023-02-12T13:19:46.516Z,30.60
2023-02-12T13:22:18.798Z,23.73
2023-02-12T13:24:51.290Z,27.13
2023-02-12T13:27:24.130Z,32.17
2023-02-12T13:29:53.933Z,24.33
2023-02-12T13:32:26.927Z,28.00
2023-02-12T13:34:56.558Z,25.33
2023-02-12T13:37:35.290Z,26.10
2023-02-12T13:40:05.777Z,23.93
2023-02-12T13:42:44.174Z,26.33
2023-02-12T13:45:23.045Z,24.67
2023-02-12T13:48:02.691Z,25.17
2023-02-12T13:50:38.404Z,26.23
2023-02-12T13:53:16.153Z,30.33
2023-02-12T13:55:58.157Z,22.90
2023-02-12T13:58:50.166Z,24.77
2023-02-12T14:01:37.936Z,28.80
2023-02-12T14:04:39.134Z,27.27
2023-02-12T14:07:08.614Z,21.93
2023-02-12T14:09:40.571Z,23.83
2023-02-12T14:12:10.976Z,21.20
2023-02-12T14:14:42.414Z,29.47
2023-02-12T14:17:41.939Z,21.60
2023-02-12T14:20:27.382Z,19.53
2023-02-12T14:23:14.830Z,19.30
2023-02-12T14:25:45.178Z,19.30
2023-02-12T14:28:25.705Z,20.67
2023-02-12T14:31:43.410Z,23.97
2023-02-12T14:34:48.959Z,19.47
2023-02-12T14:37:38.185Z,21.57
2023-02-12T14:40:31.852Z,23.87
2023-02-12T14:42:59.998Z,23.00
2023-02-12T14:45:31.530Z,28.97
2023-02-12T14:48:01.167Z,24.33
2023-02-12T14:50:40.119Z,27.80
2023-02-12T14:53:23.199Z,25.13
2023-02-12T14:55:52.343Z,22.00
2023-02-12T14:58:24.776Z,22.50
2023-02-12T15:00:58.721Z,21.63
2023-02-12T15:03:40.182Z,20.00
2023-02-12T15:06:16.213Z,21.43
2023-02-12T15:08:47.865Z,25.37
2023-02-12T15:11:24.937Z,24.70
2023-02-12T15:13:59.234Z,21.87
2023-02-12T15:16:45.774Z,24.97
2023-02-12T15:19:35.045Z,27.17
2023-02-12T15:22:02.917Z,28.77
2023-02-12T15:24:30.726Z,26.40
2023-02-12T15:27:01.290Z,28.57
2023-02-12T15:29:30.808Z,24.97
2023-02-12T15:32:00.836Z,28.07
2023-02-12T15:34:32.752Z,29.40
2023-02-12T15:37:02.430Z,31.37
2023-02-12T15:39:38.976Z,33.00
2023-02-12T15:42:06.900Z,31.10
2023-02-12T15:44:37.613Z,32.47
2023-02-12T15:47:13.168Z,34.07
2023-02-12T15:49:43.503Z,31.40
2023-02-12T15:52:19.882Z,34.83
2023-02-12T15:54:48.911Z,32.67
2023-02-12T15:57:22.657Z,34.63
2023-02-12T15:59:52.184Z,37.20
2023-02-12T16:02:23.564Z,31.47
2023-02-12T16:04:52.774Z,36.10
2023-02-12T16:07:20.965Z,35.10
2023-02-12T16:09:49.955Z,34.10
2023-02-12T16:12:21.686Z,33.83
2023-02-12T16:14:51.398Z,36.30
2023-02-12T16:17:27.493Z,33.17
2023-02-12T16:19:58.845Z,35.67
2023-02-12T16:22:29.577Z,30.30
2023-02-12T16:24:57.650Z,34.43
2023-02-12T16:27:27.473Z,31.70
2023-02-12T16:29:56.724Z,35.83
2023-02-12T16:32:36.763Z,36.87
2023-02-12T16:35:20.368Z,30.30
2023-02-12T16:37:50.217Z,33.00
2023-02-12T16:40:26.107Z,31.53
2023-02-12T16:42:59.493Z,27.90
2023-02-12T16:45:38.799Z,30.37
2023-02-12T16:48:16.754Z,27.70
2023-02-12T16:50:51.833Z,28.00
2023-02-12T16:53:35.158Z,27.47
2023-02-12T16:56:05.026Z,27.63
2023-02-12T16:58:32.822Z,29.10
2023-02-12T17:01:03.708Z,31.10
2023-02-12T17:03:31.838Z,31.20
2023-02-12T17:06:01.182Z,26.70
2023-02-12T17:08:29.652Z,28.30
2023-02-12T17:10:57.456Z,27.57
2023-02-12T17:13:25.307Z,31.10
2023-02-12T17:15:55.663Z,30.87
2023-02-12T17:18:24.076Z,29.80
2023-02-12T17:20:55.183Z,28.03
2023-02-12T17:23:24.914Z,28.63
2023-02-12T17:25:52.715Z,27.40
2023-02-12T17:28:21.148Z,27.03
2023-02-12T17:30:49.074Z,30.33
2023-02-12T17:33:17.311Z,27.93
2023-02-12T17:35:45.151Z,31.50
2023-02-12T17:38:13.284Z,32.90
2023-02-12T17:40:42.730Z,30.47
2023-02-12T17:43:10.658Z,27.40
2023-02-12T17:45:44.183Z,28.87
2023-02-12T17:48:12.488Z,28.63
2023-02-12T17:50:41.461Z,29.70
2023-02-12T17:53:09.514Z,31.37
2023-02-12T17:55:39.321Z,28.00
2023-02-12T17:58:08.934Z,27.30
2023-02-12T18:00:36.797Z,30.07
2023-02-12T18:03:04.939Z,29.60
2023-02-12T18:05:35.599Z,31.33
2023-02-12T18:08:03.906Z,30.60
2023-02-12T18:10:34.049Z,32.17
2023-02-12T18:13:02.041Z,32.63
2023-02-12T18:15:32.392Z,26.57
2023-02-12T18:18:00.762Z,35.70
2023-02-12T18:20:29.400Z,30.87
2023-02-12T18:22:57.610Z,30.27
2023-02-12T18:25:25.596Z,28.50
2023-02-12T18:27:53.476Z,25.57
2023-02-12T18:30:21.422Z,31.10
2023-02-12T18:32:51.853Z,31.83
2023-02-12T18:35:20.318Z,27.30
2023-02-12T18:37:48.523Z,27.10
2023-02-12T18:40:17.134Z,27.43
2023-02-12T18:42:45.101Z,24.73
2023-02-12T18:45:13.442Z,25.67
2023-02-12T18:47:41.956Z,26.47
2023-02-12T18:50:12.175Z,26.60
2023-02-12T18:52:40.159Z,28.37
2023-02-12T18:55:09.057Z,30.47
2023-02-12T18:57:37.609Z,27.03
2023-02-12T19:00:06.399Z,27.80
2023-02-12T19:02:34.212Z,29.40
2023-02-12T19:05:02.288Z,28.07
2023-02-12T19:07:31.794Z,27.70
2023-02-12T19:09:59.700Z,27.97
2023-02-12T19:12:27.923Z,29.13
2023-02-12T19:14:55.991Z,26.60
2023-02-12T19:17:24.039Z,28.20
2023-02-12T19:19:52.244Z,27.13
2023-02-12T19:22:20.358Z,26.70
2023-02-12T19:24:52.725Z,28.70
2023-02-12T19:27:20.575Z,29.60
2023-02-12T19:29:48.440Z,26.47
2023-02-12T19:32:16.425Z,28.60
2023-02-12T19:34:45.367Z,27.43
2023-02-12T19:37:13.856Z,27.47
2023-02-12T19:39:42.143Z,29.77
2023-02-12T19:42:12.658Z,26.43
2023-02-12T19:44:40.733Z,25.43
2023-02-12T19:47:09.519Z,28.30
2023-02-12T19:49:37.981Z,24.47
2023-02-12T19:52:06.060Z,23.17
2023-02-12T19:54:33.852Z,24.53
2023-02-12T19:57:01.711Z,25.23
2023-02-12T19:59:31.089Z,23.03
2023-02-12T20:01:59.310Z,25.53
2023-02-12T20:04:27.206Z,25.60
2023-02-12T20:06:55.033Z,23.87
2023-02-12T20:09:23.607Z,29.60
2023-02-12T20:11:51.855Z,21.83
2023-02-12T20:14:20.832Z,19.93
2023-02-12T20:16:50.790Z,20.53
2023-02-12T20:19:20.540Z,22.83
2023-02-12T20:21:54.107Z,17.97
2023-02-12T20:24:23.052Z,16.63
2023-02-12T20:26:50.930Z,16.93
2023-02-12T20:29:18.776Z,17.53
2023-02-12T20:31:46.695Z,15.00
2023-02-12T20:34:17.881Z,13.37
2023-02-12T20:36:47.146Z,11.57
2023-02-12T20:39:16.169Z,13.53
2023-02-12T20:41:44.223Z,14.00
2023-02-12T20:44:14.551Z,12.47
2023-02-12T20:46:45.641Z,13.33
2023-02-12T20:49:14.495Z,12.53
2023-02-12T20:51:44.257Z,13.37
2023-02-12T20:54:12.140Z,13.50
2023-02-12T20:56:40.381Z,15.20
2023-02-12T20:59:09.098Z,13.23
2023-02-12T21:01:39.148Z,15.57
2023-02-12T21:04:09.145Z,14.53
2023-02-12T21:06:39.983Z,14.23
2023-02-12T21:09:09.743Z,14.47
2023-02-12T21:11:37.933Z,14.33
2023-02-12T21:14:21.149Z,16.20
2023-02-12T21:16:50.517Z,15.43
2023-02-12T21:19:20.239Z,14.87
2023-02-12T21:21:48.208Z,13.47
2023-02-12T21:24:19.627Z,15.20
2023-02-12T21:26:47.467Z,16.60
2023-02-12T21:29:18.569Z,15.20
2023-02-12T21:31:47.607Z,16.50
2023-02-12T21:34:19.013Z,15.50
2023-02-12T21:36:48.530Z,16.70
2023-02-12T21:39:24.541Z,16.03
2023-02-12T21:41:53.943Z,16.37
2023-02-12T21:44:22.672Z,18.80
2023-02-12T21:46:50.560Z,16.53
2023-02-12T21:49:24.771Z,15.97
2023-02-12T21:51:54.120Z,15.90
2023-02-12T21:54:23.700Z,17.90
2023-02-12T21:56:52.122Z,14.53
2023-02-12T21:59:20.375Z,18.77
2023-02-12T22:01:52.769Z,17.80
2023-02-12T22:04:20.835Z,16.40
2023-02-12T22:06:50.421Z,17.47
2023-02-12T22:09:20.200Z,17.63
2023-02-12T22:11:49.535Z,16.93
2023-02-12T22:14:18.594Z,16.27
2023-02-12T22:16:47.673Z,16.43
2023-02-12T22:19:16.025Z,15.10
2023-02-12T22:21:45.473Z,15.27
2023-02-12T22:24:15.728Z,17.20
2023-02-12T22:26:43.933Z,17.70
2023-02-12T22:29:15.312Z,17.23
2023-02-12T22:31:44.963Z,22.20
2023-02-12T22:34:15.687Z,17.23
2023-02-12T22:36:44.008Z,16.97
2023-02-12T22:39:13.800Z,16.60
2023-02-12T22:41:44.375Z,18.03
2023-02-12T22:44:14.343Z,18.60
2023-02-12T22:46:42.249Z,16.07
2023-02-12T22:49:10.293Z,20.80
2023-02-12T22:51:39.606Z,20.23
2023-02-12T22:54:08.221Z,18.00
2023-02-12T22:56:36.113Z,20.03
2023-02-12T22:59:03.938Z,16.50
2023-02-12T23:01:33.275Z,17.63
2023-02-12T23:04:01.341Z,22.20
2023-02-12T23:06:31.155Z,17.13
2023-02-12T23:09:01.801Z,17.77
2023-02-12T23:11:30.887Z,19.33
2023-02-12T23:13:59.146Z,17.50
2023-02-12T23:16:27.289Z,17.73
2023-02-12T23:18:57.692Z,17.63
2023-02-12T23:21:25.958Z,20.87
2023-02-12T23:23:54.022Z,18.70
2023-02-12T23:26:21.910Z,17.43
2023-02-12T23:28:49.794Z,22.20
2023-02-12T23:31:17.869Z,18.70
2023-02-12T23:33:46.337Z,17.40
2023-02-12T23:36:16.018Z,22.57
2023-02-12T23:38:43.885Z,20.10
2023-02-12T23:41:11.884Z,17.63
2023-02-12T23:43:39.750Z,17.07
2023-02-12T23:46:09.186Z,24.40
2023-02-12T23:48:37.165Z,21.20
2023-02-12T23:51:05.026Z,21.17
2023-02-12T23:53:34.256Z,21.03
2023-02-12T23:56:02.075Z,24.63
2023-02-12T23:58:29.894Z,25.53
